Íslenskir flugvellir

Veldu flugvelli í þeirri röð sem þeir eiga að birtast og styddu á hnappinn

Uppfært síðast 09.12.2019 - kl. 00:14

SIGMET síðustu 6 klst.

Engin SIGMET skeyti bárust síðustu 6 klst.

Egilsstaðir

METAR síðustu 3 klst

TímiSkeyti
2019-12-09 00.00METAR BIEG 090000Z 00000KT 4500 -SHSN SCT014 BKN040 OVC050 M03/M04 Q1005 R04/490294 RMK SAND ON RWY WIND GAGNHEIDI 02018KT
2019-12-08 23.00METAR BIEG 082300Z 00000KT 9999 -SHSN SCT010 BKN033 OVC050 M03/M03 Q1005 R04/490294 RMK SAND ON RWY WIND GAGNHEIDI 35021KT
2019-12-08 22.00METAR BIEG 082200Z 02003KT 9999 -SHSN SCT010 BKN033 OVC050 M02/M03 Q1004 R04/490294 RMK SAND ON RWY WIND GAGNHEIDI 36023KT

TAF

TAFBIEG2019-12-08 22.28Z09000020008KT 9999 -SHSN SCT015 BKN025 OVC030 TX02/0921Z TNM06/0906Z BECMG 0900/0902 20008KT NSW BECMG 0915/0917 16015G25KT BECMG 0918/0921 14020G35KT 1200 SN BKN005 OVC010

Allur vindur er réttvísandi bæði í Metar og frá sjálfvirkum veðurstöðvum




Aðrir tengdir vefir



Þetta vefsvæði byggir á Eplica